Time;durP1;ratioP1;P1;durP2;ratioP2;P2;SDS_P1;SDS_P2;PMS_P1;PMS_P2;Temp;Humidity;BMP_temperature;BMP_pressure;BME280_temperature;BME280_humidity;BME280_pressure;Samples;Min_cycle;Max_cycle;Signal;HPM_P1;HPM_P2
2022/04/16 00:01:52;;;;;;;0.50;0.30;;;9.70;99.90;;;;;;5033290;28;20474;-82
2022/04/16 00:04:19;;;;;;;0.43;0.43;;;9.70;99.90;;;;;;5033311;28;20504;-81
2022/04/16 00:06:47;;;;;;;1.70;0.70;;;9.60;99.90;;;;;;5033352;28;20447;-82
2022/04/16 00:09:14;;;;;;;0.60;0.60;;;9.60;99.90;;;;;;5033070;28;20457;-82
2022/04/16 00:11:41;;;;;;;0.30;0.30;;;9.50;99.90;;;;;;5033055;28;20465;-81
2022/04/16 00:14:08;;;;;;;0.40;0.40;;;9.50;99.90;;;;;;5033294;28;20454;-82
2022/04/16 00:16:34;;;;;;;0.40;0.30;;;9.40;99.90;;;;;;5033202;28;20478;-81
2022/04/16 00:19:01;;;;;;;0.30;0.20;;;9.40;99.90;;;;;;5033208;28;20446;-82
2022/04/16 00:21:28;;;;;;;1.03;0.40;;;9.30;99.90;;;;;;5033087;28;20466;-81
2022/04/16 00:23:57;;;;;;;1.10;0.40;;;9.30;99.90;;;;;;5033120;28;20446;-82
2022/04/16 00:26:24;;;;;;;0.40;0.40;;;9.30;99.90;;;;;;5033158;28;20902;-82
2022/04/16 00:28:51;;;;;;;1.00;0.57;;;9.30;99.90;;;;;;5032790;28;20938;-81
2022/04/16 00:31:18;;;;;;;0.30;0.30;;;9.30;99.90;;;;;;5033010;28;20471;-81
2022/04/16 00:33:46;;;;;;;0.30;0.30;;;9.30;99.90;;;;;;5033109;28;20453;-81
2022/04/16 00:36:14;;;;;;;0.40;0.30;;;9.30;99.90;;;;;;5032687;28;20999;-82
2022/04/16 00:38:41;;;;;;;0.50;0.50;;;9.30;99.90;;;;;;5033107;28;20451;-82
2022/04/16 00:41:11;;;;;;;0.60;0.60;;;9.30;99.90;;;;;;5032953;28;20470;-81
2022/04/16 00:43:38;;;;;;;0.40;0.30;;;9.30;99.90;;;;;;5032873;28;20494;-82
2022/04/16 00:46:04;;;;;;;0.30;0.30;;;9.30;99.90;;;;;;5032969;28;20427;-82
2022/04/16 00:48:31;;;;;;;0.40;0.30;;;9.20;99.90;;;;;;5032924;28;20462;-82
2022/04/16 00:50:59;;;;;;;0.40;0.40;;;9.20;99.90;;;;;;5032575;28;20459;-82
2022/04/16 00:53:27;;;;;;;0.30;0.27;;;9.20;99.90;;;;;;5032873;28;20848;-82
2022/04/16 00:55:54;;;;;;;0.40;0.30;;;9.20;99.90;;;;;;5035789;28;20481;-81
2022/04/16 00:58:22;;;;;;;0.30;0.30;;;9.10;99.90;;;;;;5036249;28;20973;-81
2022/04/16 01:00:49;;;;;;;0.50;0.30;;;9.10;99.90;;;;;;5036211;28;20986;-81
2022/04/16 01:03:16;;;;;;;0.77;0.77;;;9.00;99.90;;;;;;5036202;28;20457;-82
2022/04/16 01:05:43;;;;;;;0.40;0.30;;;9.00;99.90;;;;;;5036690;28;20479;-82
2022/04/16 01:08:10;;;;;;;0.30;0.30;;;9.00;99.90;;;;;;5036161;28;20431;-83
2022/04/16 01:10:37;;;;;;;2.20;0.73;;;9.00;99.90;;;;;;5035964;28;20997;-81
2022/04/16 01:13:07;;;;;;;0.40;0.30;;;9.00;99.90;;;;;;5036082;28;20445;-81
2022/04/16 01:15:35;;;;;;;0.40;0.30;;;8.90;99.90;;;;;;5036382;28;20439;-81
2022/04/16 01:18:05;;;;;;;0.30;0.30;;;8.90;99.90;;;;;;5036128;28;20493;-81
2022/04/16 01:20:35;;;;;;;0.60;0.33;;;8.90;99.90;;;;;;5035840;28;20958;-82
2022/04/16 01:23:03;;;;;;;0.40;0.37;;;8.80;99.90;;;;;;5036096;28;20790;-82
2022/04/16 01:25:32;;;;;;;0.40;0.30;;;8.80;99.90;;;;;;5035809;28;20443;-81
2022/04/16 01:27:59;;;;;;;0.30;0.30;;;8.70;99.90;;;;;;5036081;28;20446;-81
2022/04/16 01:30:26;;;;;;;0.40;0.30;;;8.80;99.90;;;;;;5035609;28;20451;-81
2022/04/16 01:32:52;;;;;;;0.30;0.30;;;8.70;99.90;;;;;;5035635;28;20823;-81
2022/04/16 01:35:19;;;;;;;1.07;0.43;;;8.70;99.90;;;;;;5035627;28;20446;-81
2022/04/16 01:37:46;;;;;;;0.33;0.33;;;8.70;99.90;;;;;;5035770;28;20941;-80
2022/04/16 01:40:16;;;;;;;0.60;0.60;;;8.70;99.90;;;;;;5035835;28;20435;-82
2022/04/16 01:42:45;;;;;;;0.30;0.30;;;8.70;99.90;;;;;;5035767;28;20450;-83
2022/04/16 01:45:15;;;;;;;0.30;0.30;;;8.60;99.90;;;;;;5035766;28;20482;-84
2022/04/16 01:47:42;;;;;;;0.30;0.20;;;8.60;99.90;;;;;;5036493;28;20534;-84
2022/04/16 01:50:11;;;;;;;2.40;0.60;;;8.60;99.90;;;;;;5035645;28;20459;-83
2022/04/16 01:52:38;;;;;;;0.30;0.30;;;8.60;99.90;;;;;;5035700;28;20511;-82
2022/04/16 01:55:07;;;;;;;0.40;0.30;;;8.60;99.90;;;;;;5036067;28;20453;-83
2022/04/16 01:57:35;;;;;;;0.47;0.33;;;8.60;99.90;;;;;;5035797;28;20862;-84
2022/04/16 02:00:03;;;;;;;0.30;0.20;;;8.60;99.90;;;;;;5035461;28;20458;-83
2022/04/16 02:02:30;;;;;;;0.30;0.30;;;8.50;99.90;;;;;;5035333;28;20474;-83
2022/04/16 02:04:57;;;;;;;0.50;0.40;;;8.50;99.90;;;;;;5035165;28;20434;-82
2022/04/16 02:07:24;;;;;;;0.30;0.30;;;8.50;99.90;;;;;;5034556;28;20446;-82
2022/04/16 02:09:50;;;;;;;0.30;0.30;;;8.40;99.90;;;;;;5035568;28;20446;-83
2022/04/16 02:12:17;;;;;;;0.30;0.30;;;8.40;99.90;;;;;;5035176;28;20656;-83
2022/04/16 02:14:45;;;;;;;0.30;0.30;;;8.40;99.90;;;;;;5034841;28;20454;-83
2022/04/16 02:17:12;;;;;;;0.30;0.30;;;8.40;99.90;;;;;;5035030;28;20482;-83
2022/04/16 02:19:39;;;;;;;0.30;0.23;;;8.50;99.90;;;;;;5035063;28;20454;-84
2022/04/16 02:22:06;;;;;;;0.30;0.20;;;8.50;99.90;;;;;;5034863;28;20486;-83
2022/04/16 02:24:33;;;;;;;0.30;0.20;;;8.50;99.90;;;;;;5035513;28;20455;-83
2022/04/16 02:27:00;;;;;;;0.40;0.30;;;8.50;99.90;;;;;;5034913;28;20447;-84
2022/04/16 02:29:27;;;;;;;0.40;0.30;;;8.60;99.90;;;;;;5035702;28;20455;-82
2022/04/16 02:31:55;;;;;;;0.30;0.30;;;8.60;99.90;;;;;;5034854;28;20467;-84
2022/04/16 02:34:21;;;;;;;1.03;0.30;;;8.60;99.90;;;;;;5034921;28;20458;-83
2022/04/16 02:36:48;;;;;;;0.40;0.30;;;8.60;99.90;;;;;;5034642;28;20478;-82
2022/04/16 02:39:15;;;;;;;0.30;0.20;;;8.60;99.90;;;;;;5034730;28;20462;-85
2022/04/16 02:41:42;;;;;;;0.40;0.40;;;8.60;99.90;;;;;;5034387;28;20455;-84
2022/04/16 02:47:05;;;;;;;0.30;0.30;;;8.60;99.90;;;;;;5034421;28;20486;-85
2022/04/16 02:47:06;;;;;;;0.37;0.30;;;8.50;99.90;;;;;;5034266;28;20506;-84
2022/04/16 02:49:34;;;;;;;0.30;0.30;;;8.50;99.90;;;;;;5034521;28;20510;-84
2022/04/16 02:52:01;;;;;;;0.30;0.30;;;8.40;99.90;;;;;;5034385;28;20513;-84
2022/04/16 02:54:27;;;;;;;0.30;0.20;;;8.40;99.90;;;;;;5034412;28;20454;-85
2022/04/16 02:56:55;;;;;;;0.37;0.30;;;8.40;99.90;;;;;;5033935;28;20853;-87
2022/04/16 02:59:21;;;;;;;0.30;0.20;;;8.40;99.90;;;;;;5034329;28;20457;-84
2022/04/16 03:01:48;;;;;;;0.40;0.30;;;8.30;99.90;;;;;;5034385;28;20467;-84
2022/04/16 03:04:17;;;;;;;0.50;0.50;;;8.30;99.90;;;;;;5033866;28;20957;-83
2022/04/16 03:06:44;;;;;;;0.30;0.30;;;8.20;99.90;;;;;;5034189;28;20489;-86
2022/04/16 03:09:11;;;;;;;0.30;0.20;;;8.20;99.90;;;;;;5033820;28;20954;-86
2022/04/16 03:11:38;;;;;;;0.80;0.30;;;8.20;99.90;;;;;;5034014;28;20497;-86
2022/04/16 03:19:31;;;;;;;0.40;0.30;;;8.10;99.90;;;;;;5033839;28;20445;-86
2022/04/16 03:21:57;;;;;;;0.30;0.30;;;8.10;99.90;;;;;;5033892;28;20474;-86
2022/04/16 03:24:25;;;;;;;0.40;0.30;;;8.00;99.90;;;;;;5033898;28;20443;-84
2022/04/16 03:26:51;;;;;;;2.93;0.90;;;8.00;99.90;;;;;;5033846;28;20541;-84
2022/04/16 03:29:18;;;;;;;0.30;0.20;;;7.90;99.90;;;;;;5033816;28;20443;-86
2022/04/16 03:31:45;;;;;;;1.13;0.40;;;7.90;99.90;;;;;;5033687;28;20466;-86
2022/04/16 03:34:11;;;;;;;0.30;0.30;;;7.90;99.90;;;;;;5033455;28;20962;-83
2022/04/16 03:36:39;;;;;;;0.30;0.30;;;7.80;99.90;;;;;;5033656;28;20462;-84
2022/04/16 03:39:06;;;;;;;0.30;0.30;;;7.80;99.90;;;;;;5033658;28;20474;-84
2022/04/16 03:41:34;;;;;;;0.30;0.20;;;7.70;99.90;;;;;;5033571;28;20467;-84
2022/04/16 03:44:00;;;;;;;0.30;0.30;;;7.70;99.90;;;;;;5033284;28;20478;-84
2022/04/16 03:46:27;;;;;;;0.57;0.50;;;7.70;99.90;;;;;;5033474;28;20448;-83
2022/04/16 03:48:54;;;;;;;0.30;0.30;;;7.80;99.90;;;;;;5033311;28;20446;-83
2022/04/16 03:51:21;;;;;;;0.43;0.43;;;7.80;99.90;;;;;;5033062;28;20848;-83
2022/04/16 03:53:49;;;;;;;0.47;0.40;;;7.80;99.90;;;;;;5033494;28;20453;-82
2022/04/16 04:01:45;;;;;;;0.30;0.30;;;7.90;99.90;;;;;;5033392;28;20509;-85
2022/04/16 04:04:12;;;;;;;0.30;0.20;;;7.90;99.90;;;;;;5033417;28;20520;-84
2022/04/16 04:06:40;;;;;;;0.37;0.27;;;8.00;99.90;;;;;;5033428;28;20454;-84
2022/04/16 04:09:08;;;;;;;0.40;0.40;;;8.00;99.90;;;;;;5033288;28;20446;-84
2022/04/16 04:11:34;;;;;;;0.87;0.87;;;7.90;99.90;;;;;;5032947;28;20813;-85
2022/04/16 04:14:01;;;;;;;0.30;0.30;;;7.90;99.90;;;;;;5033286;28;20443;-84
2022/04/16 04:16:28;;;;;;;0.30;0.30;;;7.90;99.90;;;;;;5033249;28;20447;-83
2022/04/16 04:18:55;;;;;;;0.30;0.30;;;7.90;99.90;;;;;;5032954;28;21028;-84
2022/04/16 04:21:21;;;;;;;0.77;0.57;;;7.90;99.90;;;;;;5033164;28;20473;-84
2022/04/16 04:23:48;;;;;;;0.30;0.30;;;7.80;99.90;;;;;;5032879;28;20942;-83
2022/04/16 04:26:16;;;;;;;0.50;0.40;;;7.90;99.90;;;;;;5033175;28;20450;-84
2022/04/16 04:28:43;;;;;;;0.37;0.37;;;7.90;99.90;;;;;;5032924;28;20435;-84
2022/04/16 04:31:10;;;;;;;0.40;0.30;;;8.00;99.90;;;;;;5036184;28;20470;-84
2022/04/16 04:33:37;;;;;;;0.30;0.30;;;8.00;99.90;;;;;;5037016;28;20450;-83
2022/04/16 04:36:04;;;;;;;0.40;0.30;;;7.90;99.90;;;;;;5037015;28;20462;-83
2022/04/16 04:38:31;;;;;;;0.40;0.30;;;8.00;99.90;;;;;;5036619;28;21027;-85
2022/04/16 04:40:58;;;;;;;0.37;0.27;;;8.00;99.90;;;;;;5036901;28;20462;-83
2022/04/16 04:43:27;;;;;;;0.67;0.37;;;8.00;99.90;;;;;;5036668;28;20489;-84
2022/04/16 04:45:54;;;;;;;0.30;0.30;;;7.90;99.90;;;;;;5036871;28;20526;-84
2022/04/16 04:48:20;;;;;;;0.30;0.30;;;8.00;99.90;;;;;;5036617;28;20442;-84
2022/04/16 04:50:47;;;;;;;0.70;0.40;;;8.10;99.90;;;;;;5036527;28;20455;-84
2022/04/16 04:53:14;;;;;;;0.30;0.30;;;8.10;99.90;;;;;;5036724;28;20447;-84
2022/04/16 04:55:41;;;;;;;0.40;0.33;;;8.10;99.90;;;;;;5036645;28;20528;-83
2022/04/16 04:58:07;;;;;;;0.63;0.40;;;8.10;99.90;;;;;;5036272;28;20847;-84
2022/04/16 05:00:36;;;;;;;0.30;0.30;;;8.20;99.90;;;;;;5036186;28;20942;-84
2022/04/16 05:03:02;;;;;;;1.10;0.43;;;8.20;99.90;;;;;;5036478;28;20454;-83
2022/04/16 05:05:29;;;;;;;0.30;0.30;;;8.30;99.90;;;;;;5036481;28;20438;-84
2022/04/16 05:07:56;;;;;;;0.40;0.30;;;8.30;99.90;;;;;;5036441;28;20453;-84
2022/04/16 05:10:23;;;;;;;0.40;0.40;;;8.40;99.90;;;;;;5036036;28;20976;-84
2022/04/16 05:12:49;;;;;;;0.40;0.40;;;8.40;99.90;;;;;;5036100;28;20446;-85
2022/04/16 05:15:16;;;;;;;0.40;0.40;;;8.50;99.90;;;;;;5036036;28;20811;-84
2022/04/16 05:17:44;;;;;;;0.30;0.30;;;8.50;99.90;;;;;;5036175;28;20486;-84
2022/04/16 05:20:11;;;;;;;0.40;0.33;;;8.50;99.90;;;;;;5036155;28;20450;-82
2022/04/16 05:22:38;;;;;;;0.30;0.27;;;8.50;99.90;;;;;;5036081;28;20462;-84
2022/04/16 05:25:06;;;;;;;0.30;0.27;;;8.60;99.90;;;;;;5036175;28;20513;-84
2022/04/16 05:27:34;;;;;;;0.40;0.30;;;8.60;99.90;;;;;;5036033;28;20443;-84
2022/04/16 05:30:12;;;;;;;0.30;0.30;;;8.60;99.90;;;;;;5036015;28;20458;-84
2022/04/16 05:32:42;;;;;;;0.30;0.30;;;8.60;99.90;;;;;;5036177;28;20545;-83
2022/04/16 05:35:12;;;;;;;0.40;0.40;;;8.70;99.90;;;;;;5035900;28;20485;-83
2022/04/16 05:37:39;;;;;;;0.47;0.40;;;8.70;99.90;;;;;;5035891;28;20502;-83
2022/04/16 05:40:07;;;;;;;0.30;0.30;;;8.80;99.90;;;;;;5035581;28;20442;-83
2022/04/16 05:42:39;;;;;;;0.30;0.30;;;8.90;99.90;;;;;;5034532;28;20470;-84
2022/04/16 05:45:07;;;;;;;0.30;0.30;;;9.10;99.90;;;;;;5035393;28;20513;-82
2022/04/16 05:47:34;;;;;;;0.40;0.40;;;9.20;99.90;;;;;;5035726;28;20447;-83
2022/04/16 05:50:01;;;;;;;1.23;0.40;;;9.20;99.90;;;;;;5035655;28;20450;-83
2022/04/16 05:52:29;;;;;;;0.40;0.30;;;9.30;99.90;;;;;;5035758;28;20471;-83
2022/04/16 05:54:56;;;;;;;0.50;0.50;;;9.30;99.90;;;;;;5035395;28;20954;-83
2022/04/16 05:57:25;;;;;;;1.47;0.40;;;9.30;99.90;;;;;;5035422;28;20442;-83
2022/04/16 05:59:52;;;;;;;0.53;0.53;;;9.40;99.90;;;;;;5035475;28;20446;-82
2022/04/16 06:02:19;;;;;;;0.40;0.30;;;9.40;99.90;;;;;;5035434;28;20475;-83
2022/04/16 06:04:46;;;;;;;0.40;0.30;;;9.40;99.90;;;;;;5035403;28;20447;-83
2022/04/16 06:07:13;;;;;;;0.80;0.47;;;9.30;99.90;;;;;;5035284;28;20477;-84
2022/04/16 06:09:41;;;;;;;0.30;0.30;;;9.30;99.90;;;;;;5035317;28;20447;-82
2022/04/16 06:12:09;;;;;;;0.40;0.30;;;9.30;99.90;;;;;;5035200;28;20458;-83
2022/04/16 06:14:36;;;;;;;0.97;0.37;;;9.20;99.90;;;;;;5034914;28;20899;-83
2022/04/16 06:17:03;;;;;;;0.30;0.30;;;9.30;99.90;;;;;;5035120;28;20453;-83
2022/04/16 06:19:29;;;;;;;0.40;0.40;;;9.30;99.90;;;;;;5034680;28;20478;-83
2022/04/16 06:21:56;;;;;;;1.70;0.50;;;9.30;99.90;;;;;;5035203;28;20474;-83
2022/04/16 06:24:23;;;;;;;0.30;0.30;;;9.30;99.90;;;;;;5035025;28;20454;-84
2022/04/16 06:26:51;;;;;;;0.40;0.40;;;9.30;99.90;;;;;;5034978;28;20449;-82
2022/04/16 06:29:18;;;;;;;0.60;0.60;;;9.40;99.90;;;;;;5034924;28;20469;-83
2022/04/16 06:31:44;;;;;;;0.40;0.30;;;9.50;99.90;;;;;;5034496;28;20471;-83
2022/04/16 06:34:11;;;;;;;0.30;0.30;;;9.60;99.90;;;;;;5035089;28;20447;-83
2022/04/16 06:36:38;;;;;;;0.60;0.60;;;9.60;99.90;;;;;;5034890;28;20458;-83
2022/04/16 06:39:05;;;;;;;2.47;0.40;;;9.60;99.90;;;;;;5034345;28;21001;-84
2022/04/16 06:41:32;;;;;;;1.37;1.30;;;9.50;99.90;;;;;;5034321;28;20981;-82
2022/04/16 06:44:00;;;;;;;0.30;0.30;;;9.50;99.90;;;;;;5034325;28;20486;-84
2022/04/16 06:46:27;;;;;;;0.30;0.30;;;9.50;99.90;;;;;;5034573;28;20451;-84
2022/04/16 06:48:53;;;;;;;0.40;0.30;;;9.50;99.90;;;;;;5034527;28;20447;-85
2022/04/16 06:51:20;;;;;;;0.40;0.30;;;9.40;99.90;;;;;;5034080;28;21000;-84
2022/04/16 06:53:47;;;;;;;0.40;0.33;;;9.40;99.90;;;;;;5034267;28;20427;-84
2022/04/16 06:56:14;;;;;;;0.43;0.30;;;9.50;99.90;;;;;;5034427;28;20431;-85
2022/04/16 06:58:40;;;;;;;0.50;0.50;;;9.50;99.90;;;;;;5034245;28;20482;-84
2022/04/16 07:01:08;;;;;;;1.90;0.30;;;9.60;99.90;;;;;;5033919;28;20993;-84
2022/04/16 07:03:35;;;;;;;0.30;0.30;;;9.50;99.90;;;;;;5033981;28;20926;-82
2022/04/16 07:06:02;;;;;;;0.30;0.30;;;9.50;99.90;;;;;;5033930;28;20914;-85
2022/04/16 07:08:29;;;;;;;0.30;0.30;;;9.50;99.90;;;;;;5034163;28;20453;-84
2022/04/16 07:10:55;;;;;;;0.37;0.30;;;9.50;99.90;;;;;;5033805;28;20871;-85
2022/04/16 07:13:22;;;;;;;0.50;0.33;;;9.60;99.90;;;;;;5034348;28;20446;-84
2022/04/16 07:15:49;;;;;;;0.40;0.33;;;9.60;99.90;;;;;;5034036;28;20435;-85
2022/04/16 07:18:17;;;;;;;1.20;0.80;;;9.50;99.90;;;;;;5033931;28;20483;-83
2022/04/16 07:20:44;;;;;;;0.40;0.40;;;9.50;99.90;;;;;;5033951;28;20463;-84
2022/04/16 07:23:10;;;;;;;0.40;0.33;;;9.40;99.90;;;;;;5033873;28;20942;-82
2022/04/16 07:25:37;;;;;;;0.70;0.30;;;9.40;99.90;;;;;;5033876;28;20443;-81
2022/04/16 07:28:04;;;;;;;0.30;0.30;;;9.40;99.90;;;;;;5033480;28;20935;-82
2022/04/16 07:30:31;;;;;;;1.73;1.03;;;9.40;99.90;;;;;;5033711;28;20442;-81
2022/04/16 07:32:58;;;;;;;0.30;0.30;;;9.40;99.90;;;;;;5033731;28;20450;-84
2022/04/16 07:35:27;;;;;;;0.30;0.20;;;9.40;99.90;;;;;;5033739;28;20442;-82
2022/04/16 07:37:57;;;;;;;0.40;0.30;;;9.40;99.90;;;;;;5033661;28;20511;-84
2022/04/16 07:40:25;;;;;;;1.00;0.30;;;9.50;99.90;;;;;;5033317;28;20961;-81
2022/04/16 07:42:52;;;;;;;0.40;0.30;;;9.50;99.90;;;;;;5033335;28;20934;-84
2022/04/16 07:45:19;;;;;;;0.40;0.30;;;9.50;99.90;;;;;;5033444;28;20478;-82
2022/04/16 07:47:45;;;;;;;0.30;0.20;;;9.50;99.90;;;;;;5033562;28;20542;-82
2022/04/16 07:50:12;;;;;;;0.40;0.40;;;9.40;99.90;;;;;;5033506;28;20454;-84
2022/04/16 07:52:40;;;;;;;0.40;0.40;;;9.50;99.90;;;;;;5033147;28;20510;-84
2022/04/16 07:55:08;;;;;;;1.03;0.90;;;9.50;99.90;;;;;;5033697;28;20446;-82
2022/04/16 07:57:35;;;;;;;0.40;0.40;;;9.60;99.90;;;;;;5033162;28;20934;-84
2022/04/16 08:00:01;;;;;;;0.30;0.30;;;9.70;99.90;;;;;;5033611;28;20481;-81
2022/04/16 08:02:28;;;;;;;0.30;0.27;;;9.70;99.90;;;;;;5033310;28;20466;-81
2022/04/16 08:04:55;;;;;;;0.30;0.30;;;9.80;99.90;;;;;;5032935;28;20454;-83
2022/04/16 08:07:22;;;;;;;0.30;0.30;;;9.80;99.90;;;;;;5037051;28;20442;-84
2022/04/16 08:09:50;;;;;;;0.77;0.77;;;9.80;99.90;;;;;;5033479;28;20450;-84
2022/04/16 08:12:17;;;;;;;0.50;0.37;;;9.90;99.90;;;;;;5032931;28;21000;-84
2022/04/16 08:14:43;;;;;;;0.30;0.30;;;9.90;99.90;;;;;;5033204;28;20453;-84
2022/04/16 08:17:10;;;;;;;0.37;0.30;;;10.00;99.90;;;;;;5032924;28;20969;-82
2022/04/16 08:19:37;;;;;;;0.30;0.20;;;10.10;99.90;;;;;;5032842;28;20494;-83
2022/04/16 08:22:07;;;;;;;0.40;0.30;;;10.10;99.90;;;;;;5033144;28;20489;-83
2022/04/16 08:24:41;;;;;;;1.43;0.73;;;10.00;99.90;;;;;;5033183;28;20490;-84
2022/04/16 08:27:09;;;;;;;0.40;0.40;;;10.10;99.90;;;;;;5032925;28;20524;-84
2022/04/16 08:29:37;;;;;;;0.70;0.70;;;10.10;99.90;;;;;;5033100;28;20450;-83
2022/04/16 08:32:06;;;;;;;0.77;0.60;;;10.10;99.90;;;;;;5033017;28;20833;-84
2022/04/16 08:34:32;;;;;;;0.40;0.30;;;10.10;99.90;;;;;;5033118;28;20476;-83
2022/04/16 08:36:59;;;;;;;0.53;0.30;;;10.20;99.90;;;;;;5033044;28;20454;-81
2022/04/16 08:39:27;;;;;;;1.90;0.50;;;10.40;99.90;;;;;;5032952;28;20482;-82
2022/04/16 08:41:56;;;;;;;0.30;0.20;;;10.60;99.90;;;;;;5032981;28;20466;-83
2022/04/16 08:44:26;;;;;;;0.40;0.30;;;10.70;99.90;;;;;;5032827;28;20485;-84
2022/04/16 08:46:54;;;;;;;0.40;0.40;;;10.80;99.90;;;;;;5033040;28;20455;-82
2022/04/16 08:49:21;;;;;;;0.80;0.67;;;10.90;99.90;;;;;;5032932;28;20451;-84
2022/04/16 08:51:49;;;;;;;0.30;0.30;;;10.80;99.90;;;;;;5032888;28;20490;-84
2022/04/16 08:54:15;;;;;;;0.30;0.20;;;10.90;99.90;;;;;;5032591;28;20946;-83
2022/04/16 08:56:42;;;;;;;0.57;0.57;;;11.10;99.90;;;;;;5032801;28;20948;-83
2022/04/16 08:59:09;;;;;;;0.40;0.40;;;11.30;99.90;;;;;;5032807;28;20489;-82
2022/04/16 09:01:37;;;;;;;1.23;1.13;;;11.20;99.90;;;;;;5032784;28;20828;-84
2022/04/16 09:04:05;;;;;;;0.50;0.50;;;11.20;99.90;;;;;;5032458;28;20455;-84
2022/04/16 09:06:31;;;;;;;0.30;0.30;;;11.30;99.90;;;;;;5032761;28;20458;-84
2022/04/16 09:09:09;;;;;;;0.40;0.40;;;11.50;99.90;;;;;;5032451;28;20526;-83
2022/04/16 09:11:36;;;;;;;0.40;0.30;;;11.70;99.90;;;;;;5032424;28;20978;-84
2022/04/16 09:14:03;;;;;;;0.37;0.33;;;11.70;99.90;;;;;;5032783;28;20465;-83
2022/04/16 09:16:33;;;;;;;1.23;0.70;;;11.90;99.90;;;;;;5034436;28;20780;-83
2022/04/16 09:19:01;;;;;;;2.20;0.80;;;12.00;99.90;;;;;;5035979;28;20470;-82
2022/04/16 09:21:29;;;;;;;1.93;0.87;;;12.40;99.90;;;;;;5036137;28;20474;-82
2022/04/16 09:23:59;;;;;;;0.50;0.43;;;12.60;99.90;;;;;;5036116;28;20902;-82
2022/04/16 09:26:31;;;;;;;1.73;1.07;;;13.10;99.90;;;;;;5036307;28;20474;-83
2022/04/16 09:29:06;;;;;;;0.53;0.53;;;13.10;99.90;;;;;;5036120;28;20431;-83
2022/04/16 09:31:34;;;;;;;0.50;0.40;;;13.20;99.90;;;;;;5035972;28;20465;-83
2022/04/16 09:34:02;;;;;;;0.50;0.40;;;13.00;99.90;;;;;;5036034;28;20514;-82
2022/04/16 09:36:29;;;;;;;1.90;1.07;;;12.90;99.90;;;;;;5035876;28;20985;-83
2022/04/16 09:39:04;;;;;;;1.63;0.90;;;12.70;99.90;;;;;;5035847;28;20487;-83
2022/04/16 09:41:32;;;;;;;1.17;0.50;;;12.40;99.90;;;;;;5035478;28;20473;-83
2022/04/16 09:43:59;;;;;;;0.40;0.33;;;11.90;99.90;;;;;;5035544;28;20521;-83
2022/04/16 09:46:28;;;;;;;1.00;0.53;;;11.70;99.90;;;;;;5035491;28;20435;-83
2022/04/16 09:49:02;;;;;;;0.40;0.37;;;11.60;99.90;;;;;;5036085;28;20454;-84
2022/04/16 09:51:33;;;;;;;0.40;0.40;;;11.30;99.90;;;;;;5035869;28;20543;-84
2022/04/16 09:54:02;;;;;;;0.30;0.30;;;11.20;99.90;;;;;;5035672;28;20431;-82
2022/04/16 09:56:31;;;;;;;0.70;0.70;;;11.00;99.90;;;;;;5035313;28;20956;-84
2022/04/16 09:59:01;;;;;;;0.30;0.30;;;10.80;99.90;;;;;;5035452;28;20486;-85
2022/04/16 10:01:29;;;;;;;0.30;0.30;;;10.80;99.90;;;;;;5035400;28;20471;-83
2022/04/16 10:03:57;;;;;;;0.50;0.50;;;10.90;99.90;;;;;;5035435;28;20443;-84
2022/04/16 10:06:25;;;;;;;1.33;1.33;;;10.90;99.90;;;;;;5035421;28;20431;-81
2022/04/16 10:08:53;;;;;;;11.50;1.23;;;10.90;99.90;;;;;;5035308;28;20447;-84
2022/04/16 10:11:32;;;;;;;0.80;0.80;;;11.00;99.90;;;;;;5035260;28;20467;-84
2022/04/16 10:14:05;;;;;;;0.70;0.70;;;10.90;99.90;;;;;;5035271;28;20868;-84
2022/04/16 10:16:40;;;;;;;0.40;0.30;;;10.90;99.90;;;;;;5034887;28;20431;-83
2022/04/16 10:19:15;;;;;;;1.60;0.43;;;10.80;99.90;;;;;;5035123;28;20466;-83
2022/04/16 10:21:43;;;;;;;0.57;0.30;;;10.80;99.90;;;;;;5038575;28;20540;-84
2022/04/16 10:24:10;;;;;;;0.40;0.30;;;10.80;99.90;;;;;;5035486;28;20423;-84
2022/04/16 10:26:38;;;;;;;0.63;0.37;;;10.90;99.90;;;;;;5035168;28;20454;-84
2022/04/16 10:29:05;;;;;;;0.60;0.50;;;10.90;99.90;;;;;;5034093;28;20450;-84
2022/04/16 10:31:36;;;;;;;0.50;0.40;;;10.90;99.90;;;;;;5034844;28;20505;-83
2022/04/16 10:34:09;;;;;;;0.30;0.30;;;10.80;99.90;;;;;;5034876;28;20433;-84
2022/04/16 10:36:38;;;;;;;3.03;0.60;;;10.90;99.90;;;;;;5034864;28;20489;-83
2022/04/16 10:39:16;;;;;;;0.50;0.50;;;11.00;99.90;;;;;;5034336;28;20855;-83
2022/04/16 10:41:53;;;;;;;0.57;0.50;;;11.30;99.90;;;;;;5034604;28;20497;-83
2022/04/16 10:44:21;;;;;;;0.53;0.53;;;11.60;99.90;;;;;;5034371;28;20568;-83
2022/04/16 10:46:49;;;;;;;1.50;0.60;;;11.70;99.90;;;;;;5034609;28;20821;-83
2022/04/16 10:49:17;;;;;;;1.53;1.43;;;11.90;99.90;;;;;;5034536;28;20438;-83
2022/04/16 10:51:44;;;;;;;3.13;0.57;;;12.10;99.90;;;;;;5034480;28;20501;-82
2022/04/16 10:54:12;;;;;;;0.90;0.70;;;12.20;99.90;;;;;;5034505;28;20438;-83
2022/04/16 10:56:44;;;;;;;0.50;0.40;;;12.30;99.90;;;;;;5034415;28;20455;-83
2022/04/16 10:59:11;;;;;;;0.43;0.43;;;12.40;99.90;;;;;;5034515;28;20474;-83
2022/04/16 11:01:39;;;;;;;0.60;0.40;;;12.40;99.90;;;;;;5034116;28;20498;-82
2022/04/16 11:04:13;;;;;;;0.73;0.73;;;12.50;99.90;;;;;;5034263;28;20442;-82
2022/04/16 11:06:44;;;;;;;0.63;0.63;;;13.00;99.90;;;;;;5035102;28;20462;-81
2022/04/16 11:09:12;;;;;;;0.70;0.30;;;13.60;99.90;;;;;;5033933;28;20427;-82
2022/04/16 11:11:41;;;;;;;1.00;0.50;;;13.80;99.90;;;;;;5034687;28;20471;-82
2022/04/16 11:14:09;;;;;;;2.33;1.30;;;13.80;99.90;;;;;;5034176;28;20773;-82
2022/04/16 11:16:43;;;;;;;0.47;0.40;;;13.80;99.90;;;;;;5033693;28;20446;-82
2022/04/16 11:19:12;;;;;;;0.73;0.50;;;13.50;99.90;;;;;;5033988;28;20435;-83
2022/04/16 11:21:39;;;;;;;0.50;0.50;;;13.20;99.90;;;;;;5034744;28;20467;-82
2022/04/16 11:24:06;;;;;;;0.40;0.33;;;12.90;99.90;;;;;;5034208;28;20434;-83
2022/04/16 11:34:59;;;;;;;4.10;0.60;;;12.90;99.90;;;;;;5024666;28;20500;-82
2022/04/16 11:37:26;;;;;;;0.70;0.50;;;13.00;99.90;;;;;;5033947;28;20454;-83
2022/04/16 11:39:59;;;;;;;2.50;1.13;;;13.30;99.90;;;;;;5032936;28;20525;-83
2022/04/16 11:42:26;;;;;;;0.40;0.40;;;13.40;99.90;;;;;;5033578;28;20462;-83
2022/04/16 11:44:56;;;;;;;5.33;0.40;;;13.50;99.90;;;;;;5033238;28;20479;-81
2022/04/16 11:47:25;;;;;;;1.17;0.70;;;13.50;99.90;;;;;;5033265;28;20443;-81
2022/04/16 11:49:54;;;;;;;0.53;0.40;;;13.40;99.90;;;;;;5033569;28;20450;-82
2022/04/16 11:52:24;;;;;;;0.50;0.50;;;13.40;99.90;;;;;;5033301;28;20478;-82
2022/04/16 11:55:00;;;;;;;1.20;0.37;;;13.40;99.90;;;;;;5033530;28;20930;-82
2022/04/16 11:57:27;;;;;;;0.50;0.50;;;13.40;99.90;;;;;;5033187;28;20513;-82
2022/04/16 11:59:59;;;;;;;0.73;0.73;;;13.40;99.70;;;;;;5033292;28;20482;-82
2022/04/16 12:02:34;;;;;;;0.50;0.40;;;13.20;99.70;;;;;;5033555;28;20469;-82
2022/04/16 12:05:12;;;;;;;1.53;0.40;;;13.10;99.90;;;;;;5033154;28;20925;-81
2022/04/16 12:07:41;;;;;;;1.87;1.60;;;13.20;99.90;;;;;;5033342;28;20474;-82
2022/04/16 12:10:08;;;;;;;1.13;0.67;;;13.40;98.90;;;;;;5033315;28;20446;-82
2022/04/16 12:12:47;;;;;;;1.07;1.07;;;13.50;98.40;;;;;;5033451;28;20477;-82
2022/04/16 12:15:22;;;;;;;0.57;0.43;;;13.50;98.10;;;;;;5033257;28;20492;-81
2022/04/16 12:17:49;;;;;;;0.40;0.40;;;13.40;97.80;;;;;;5033287;28;20489;-82
2022/04/16 12:20:16;;;;;;;1.07;0.70;;;13.30;97.50;;;;;;5032853;28;21117;-82
2022/04/16 12:22:48;;;;;;;0.93;0.90;;;13.30;97.50;;;;;;5033172;28;20458;-81
2022/04/16 12:25:16;;;;;;;0.70;0.47;;;13.20;97.10;;;;;;5033212;28;20438;-82
2022/04/16 12:27:45;;;;;;;0.40;0.37;;;13.40;96.40;;;;;;5032897;28;20442;-82
2022/04/16 12:30:18;;;;;;;0.80;0.67;;;13.30;95.80;;;;;;5033133;28;20496;-81
2022/04/16 12:33:00;;;;;;;0.80;0.30;;;13.20;96.40;;;;;;5033149;28;20484;-82
2022/04/16 12:35:27;;;;;;;1.30;1.20;;;13.30;95.60;;;;;;5035123;28;20476;-83
2022/04/16 12:37:55;;;;;;;1.10;0.50;;;13.20;95.90;;;;;;5033144;28;20442;-83
2022/04/16 12:40:22;;;;;;;2.20;1.90;;;12.90;95.70;;;;;;5032603;28;21032;-83
2022/04/16 12:42:49;;;;;;;0.47;0.40;;;12.70;96.50;;;;;;5033012;28;20453;-83
2022/04/16 12:45:17;;;;;;;0.60;0.50;;;12.70;96.60;;;;;;5032819;28;20474;-83
2022/04/16 12:47:44;;;;;;;0.60;0.40;;;12.80;97.70;;;;;;5032932;28;20457;-83
2022/04/16 12:50:11;;;;;;;0.40;0.33;;;13.20;96.20;;;;;;5036763;28;20446;-83
2022/04/16 12:52:38;;;;;;;1.47;0.40;;;13.20;95.10;;;;;;5036678;28;20469;-83
2022/04/16 12:55:05;;;;;;;1.80;0.60;;;13.20;95.30;;;;;;5036447;28;20462;-83
2022/04/16 12:57:32;;;;;;;0.60;0.60;;;13.40;95.10;;;;;;5036709;28;20455;-83
2022/04/16 12:59:59;;;;;;;0.87;0.40;;;13.40;94.40;;;;;;5036551;28;20484;-83
2022/04/16 13:02:27;;;;;;;0.57;0.47;;;13.20;94.20;;;;;;5036506;28;20481;-83
2022/04/16 13:04:54;;;;;;;0.50;0.40;;;12.90;94.00;;;;;;5036506;28;20451;-83
2022/04/16 13:07:21;;;;;;;1.43;1.33;;;12.80;93.70;;;;;;5036443;28;20446;-83
2022/04/16 13:09:48;;;;;;;0.70;0.50;;;12.80;93.50;;;;;;5036397;28;20443;-83
2022/04/16 13:12:16;;;;;;;0.30;0.30;;;12.70;93.40;;;;;;5036035;28;20532;-82
2022/04/16 13:14:44;;;;;;;2.57;0.60;;;12.60;93.40;;;;;;5036389;28;20525;-83
2022/04/16 13:17:11;;;;;;;2.97;0.83;;;12.50;94.00;;;;;;5036192;28;20524;-83